createdAt,value
2019-02-28T00:01:31.620Z,7.35
2019-02-28T00:04:05.387Z,6.72
2019-02-28T00:06:38.941Z,6.90
2019-02-28T00:09:12.548Z,6.85
2019-02-28T00:11:46.255Z,7.75
2019-02-28T00:14:19.881Z,7.43
2019-02-28T00:16:53.564Z,6.00
2019-02-28T00:19:27.212Z,7.12
2019-02-28T00:22:00.879Z,7.60
2019-02-28T00:24:35.255Z,7.28
2019-02-28T00:27:08.827Z,7.20
2019-02-28T00:29:42.340Z,6.50
2019-02-28T00:32:15.981Z,7.35
2019-02-28T00:34:49.478Z,6.60
2019-02-28T00:37:24.623Z,7.22
2019-02-28T00:39:57.563Z,7.40
2019-02-28T00:42:31.091Z,7.00
2019-02-28T00:45:05.099Z,7.45
2019-02-28T00:47:38.600Z,5.25
2019-02-28T00:50:12.281Z,7.00
2019-02-28T00:52:45.997Z,6.43
2019-02-28T00:55:20.375Z,6.28
2019-02-28T00:57:55.436Z,5.30
2019-02-28T01:00:27.414Z,5.65
2019-02-28T01:03:01.094Z,6.00
2019-02-28T01:05:36.586Z,6.50
2019-02-28T01:08:08.450Z,6.30
2019-02-28T01:10:41.931Z,5.28
2019-02-28T01:13:15.554Z,7.80
2019-02-28T01:15:49.260Z,5.85
2019-02-28T01:18:22.873Z,5.78
2019-02-28T01:20:56.818Z,4.80
2019-02-28T01:23:30.460Z,5.00
2019-02-28T01:26:04.072Z,4.37
2019-02-28T01:28:37.672Z,4.62
2019-02-28T01:31:12.309Z,5.55
2019-02-28T01:33:46.510Z,5.05
2019-02-28T01:36:20.208Z,4.37
2019-02-28T01:38:57.791Z,5.28
2019-02-28T01:41:28.284Z,5.00
2019-02-28T01:44:02.824Z,4.40
2019-02-28T01:46:36.960Z,5.60
2019-02-28T01:49:10.664Z,5.53
2019-02-28T01:51:44.288Z,4.82
2019-02-28T01:54:17.864Z,5.30
2019-02-28T01:56:51.474Z,5.62
2019-02-28T01:59:24.986Z,4.85
2019-02-28T02:01:59.280Z,5.72
2019-02-28T02:04:33.047Z,5.87
2019-02-28T02:07:06.574Z,5.85
2019-02-28T02:09:42.760Z,5.18
2019-02-28T02:12:13.818Z,5.10
2019-02-28T02:14:47.412Z,4.95
2019-02-28T02:17:21.700Z,5.25
2019-02-28T02:19:55.428Z,4.28
2019-02-28T02:22:29.211Z,4.68
2019-02-28T02:25:04.134Z,4.70
2019-02-28T02:27:36.432Z,4.40
2019-02-28T02:30:15.281Z,6.70
2019-02-28T02:32:45.496Z,4.40
2019-02-28T02:35:19.865Z,4.90
2019-02-28T02:37:53.498Z,4.07
2019-02-28T02:40:27.174Z,4.90
2019-02-28T02:43:00.892Z,4.22
2019-02-28T02:45:41.671Z,4.72
2019-02-28T02:48:08.013Z,4.45
2019-02-28T02:50:41.555Z,4.85
2019-02-28T02:53:16.021Z,5.00
2019-02-28T02:55:49.566Z,5.20
2019-02-28T02:58:26.714Z,4.43
2019-02-28T03:00:56.802Z,5.22
2019-02-28T03:03:30.538Z,5.40
2019-02-28T03:06:04.225Z,4.95
2019-02-28T03:08:37.756Z,5.22
2019-02-28T03:11:11.465Z,5.43
2019-02-28T03:13:45.190Z,4.43
2019-02-28T03:16:18.770Z,4.70
2019-02-28T03:18:56.675Z,5.37
2019-02-28T03:21:26.987Z,4.85
2019-02-28T03:24:00.565Z,4.90
2019-02-28T03:26:34.118Z,5.57
2019-02-28T03:29:08.956Z,5.53
2019-02-28T03:31:41.512Z,5.10
2019-02-28T03:34:15.109Z,5.35
2019-02-28T03:36:55.272Z,5.65
2019-02-28T03:39:24.556Z,5.45
2019-02-28T03:41:57.544Z,5.75
2019-02-28T03:44:31.308Z,5.90
2019-02-28T03:47:04.954Z,6.22
2019-02-28T03:49:38.766Z,5.80
2019-02-28T03:52:12.408Z,4.70
2019-02-28T03:54:45.893Z,5.18
2019-02-28T03:57:19.473Z,5.32
2019-02-28T03:59:56.799Z,5.47
2019-02-28T04:02:26.939Z,7.25
2019-02-28T04:05:00.711Z,6.68
2019-02-28T04:07:34.746Z,5.55
2019-02-28T04:10:08.044Z,6.03
2019-02-28T04:12:45.685Z,6.62
2019-02-28T04:15:15.412Z,6.15
2019-02-28T04:17:49.102Z,5.50
2019-02-28T04:20:23.510Z,6.20
2019-02-28T04:22:59.803Z,8.25
2019-02-28T04:25:30.832Z,6.60
2019-02-28T04:28:04.533Z,5.85
2019-02-28T04:30:42.550Z,6.20
2019-02-28T04:33:11.670Z,6.20
2019-02-28T04:35:45.384Z,5.82
2019-02-28T04:38:20.898Z,6.30
2019-02-28T04:40:53.325Z,7.53
2019-02-28T04:43:27.859Z,6.85
2019-02-28T04:46:01.442Z,6.07
2019-02-28T04:48:34.993Z,6.80
2019-02-28T04:51:08.763Z,6.15
2019-02-28T04:53:42.351Z,7.15
2019-02-28T04:56:15.925Z,5.97
2019-02-28T04:58:49.529Z,5.97
2019-02-28T05:01:23.096Z,7.10
2019-02-28T05:03:59.173Z,6.30
2019-02-28T05:06:30.994Z,6.22
2019-02-28T05:09:04.760Z,7.25
2019-02-28T05:11:38.299Z,7.07
2019-02-28T05:14:11.863Z,6.40
2019-02-28T05:16:47.565Z,6.57
2019-02-28T05:19:19.301Z,6.20
2019-02-28T05:21:54.337Z,6.57
2019-02-28T05:24:27.441Z,6.15
2019-02-28T05:27:01.282Z,6.30
2019-02-28T05:29:34.511Z,6.70
2019-02-28T05:32:08.235Z,6.03
2019-02-28T05:34:41.800Z,6.55
2019-02-28T05:37:15.332Z,5.68
2019-02-28T05:39:48.896Z,6.40
2019-02-28T05:42:23.394Z,6.30
2019-02-28T05:44:56.246Z,5.70
2019-02-28T05:47:32.289Z,6.10
2019-02-28T05:50:03.364Z,6.45
2019-02-28T05:52:37.145Z,6.53
2019-02-28T05:55:10.876Z,5.40
2019-02-28T05:57:44.969Z,5.35
2019-02-28T06:00:18.175Z,7.00
2019-02-28T06:02:54.466Z,6.35
2019-02-28T06:05:25.621Z,6.55
2019-02-28T06:08:00.483Z,6.25
2019-02-28T06:10:34.520Z,6.50
2019-02-28T06:13:09.110Z,6.32
2019-02-28T06:15:42.933Z,7.03
2019-02-28T06:18:16.699Z,6.40
2019-02-28T06:20:51.386Z,7.22
2019-02-28T06:23:24.019Z,8.30
2019-02-28T06:25:59.261Z,8.55
2019-02-28T06:28:31.955Z,9.90
2019-02-28T06:31:04.933Z,6.72
2019-02-28T06:33:38.556Z,7.75
2019-02-28T06:36:12.171Z,7.72
2019-02-28T06:38:45.764Z,8.30
2019-02-28T06:41:20.266Z,8.48
2019-02-28T06:43:53.963Z,9.48
2019-02-28T06:46:27.685Z,7.90
2019-02-28T06:49:06.913Z,9.10
2019-02-28T06:51:35.784Z,9.88
2019-02-28T06:54:10.134Z,8.07
2019-02-28T06:56:43.802Z,8.10
2019-02-28T06:59:17.400Z,8.95
2019-02-28T07:01:56.545Z,8.95
2019-02-28T07:04:24.642Z,9.80
2019-02-28T07:06:58.234Z,6.87
2019-02-28T07:09:33.639Z,7.65
2019-02-28T07:12:05.423Z,10.20
2019-02-28T07:14:39.047Z,9.45
2019-02-28T07:17:13.647Z,6.65
2019-02-28T07:19:47.390Z,7.37
2019-02-28T07:22:20.976Z,7.65
2019-02-28T07:24:54.571Z,8.90
2019-02-28T07:27:29.802Z,6.90
2019-02-28T07:30:01.701Z,8.02
2019-02-28T07:32:36.191Z,7.90
2019-02-28T07:35:09.905Z,6.65
2019-02-28T07:37:43.457Z,9.43
2019-02-28T07:40:17.385Z,7.75
2019-02-28T07:42:50.698Z,6.20
2019-02-28T07:45:24.288Z,6.95
2019-02-28T07:47:57.973Z,7.80
2019-02-28T07:50:31.547Z,8.13
2019-02-28T07:53:05.511Z,7.85
2019-02-28T07:55:45.859Z,8.43
2019-02-28T07:58:21.091Z,7.18
2019-02-28T08:00:54.839Z,7.65
2019-02-28T08:03:28.523Z,7.87
2019-02-28T08:06:04.873Z,8.40
2019-02-28T08:08:36.571Z,8.38
2019-02-28T08:11:11.154Z,8.98
2019-02-28T08:13:44.744Z,8.07
2019-02-28T08:16:18.296Z,8.95
2019-02-28T08:18:52.482Z,7.87
2019-02-28T08:21:25.502Z,9.43
2019-02-28T08:23:59.168Z,9.10
2019-02-28T08:26:33.657Z,8.73
2019-02-28T08:29:11.490Z,9.48
2019-02-28T08:31:41.844Z,8.30
2019-02-28T08:34:16.362Z,9.32
2019-02-28T08:36:50.377Z,9.40
2019-02-28T08:39:23.962Z,8.40
2019-02-28T08:42:04.521Z,9.60
2019-02-28T08:44:32.264Z,9.17
2019-02-28T08:47:06.712Z,9.37
2019-02-28T08:49:43.980Z,10.00
2019-02-28T08:52:15.165Z,8.67
2019-02-28T08:54:48.844Z,8.43
2019-02-28T08:57:25.728Z,8.70
2019-02-28T08:59:57.123Z,10.73
2019-02-28T09:02:30.434Z,7.93
2019-02-28T09:05:03.741Z,8.80
2019-02-28T09:07:38.345Z,10.23
2019-02-28T09:10:18.020Z,9.50
2019-02-28T09:12:51.631Z,9.60
2019-02-28T09:15:30.089Z,9.40
2019-02-28T09:17:59.721Z,9.50
2019-02-28T09:20:33.255Z,8.53
2019-02-28T09:23:07.557Z,8.93
2019-02-28T09:25:41.280Z,9.50
2019-02-28T09:28:15.085Z,9.07
2019-02-28T09:30:48.687Z,9.57
2019-02-28T09:33:23.261Z,9.90
2019-02-28T09:35:55.975Z,9.43
2019-02-28T09:38:29.581Z,10.40
2019-02-28T09:41:04.593Z,10.23
2019-02-28T09:43:36.812Z,11.00
2019-02-28T09:46:12.482Z,10.10
2019-02-28T09:48:44.416Z,10.27
2019-02-28T09:51:18.057Z,10.10
2019-02-28T09:53:51.605Z,10.00
2019-02-28T09:56:25.200Z,10.17
2019-02-28T09:59:00.239Z,9.30
2019-02-28T10:01:33.107Z,8.40
2019-02-28T10:04:07.648Z,7.90
2019-02-28T10:06:41.454Z,8.40
2019-02-28T10:09:17.115Z,8.40
2019-02-28T10:11:48.821Z,8.20
2019-02-28T10:14:25.707Z,7.93
2019-02-28T10:16:56.882Z,10.53
2019-02-28T10:19:30.486Z,9.23
2019-02-28T10:22:04.104Z,8.90
2019-02-28T10:24:38.525Z,8.40
2019-02-28T10:27:12.215Z,6.83
2019-02-28T10:29:46.068Z,7.87
2019-02-28T10:32:20.110Z,7.93
2019-02-28T10:34:54.544Z,8.17
2019-02-28T10:37:28.211Z,7.70
2019-02-28T10:40:01.920Z,8.20
2019-02-28T10:42:37.020Z,7.30
2019-02-28T10:45:09.463Z,6.20
2019-02-28T10:47:43.787Z,6.43
2019-02-28T10:50:25.786Z,6.03
2019-02-28T10:52:57.425Z,5.97
2019-02-28T10:55:31.040Z,10.10
2019-02-28T10:58:05.336Z,6.57
2019-02-28T11:00:39.823Z,6.20
2019-02-28T11:03:13.520Z,6.37
2019-02-28T11:05:47.279Z,6.90
2019-02-28T11:08:20.876Z,6.60
2019-02-28T11:10:54.539Z,7.10
2019-02-28T11:13:32.117Z,6.47
2019-02-28T11:16:03.633Z,6.60
2019-02-28T11:18:37.356Z,6.37
2019-02-28T11:21:11.033Z,6.20
2019-02-28T11:23:46.517Z,7.20
2019-02-28T11:26:20.391Z,6.10
2019-02-28T11:28:54.212Z,6.50
2019-02-28T11:31:27.801Z,6.60
2019-02-28T11:34:01.408Z,6.50
2019-02-28T11:36:35.011Z,6.50
2019-02-28T11:39:08.816Z,5.77
2019-02-28T11:41:42.389Z,6.73
2019-02-28T11:44:15.954Z,6.40
2019-02-28T11:46:49.666Z,6.00
2019-02-28T11:49:25.682Z,8.27
2019-02-28T11:51:57.020Z,5.97
2019-02-28T11:54:30.614Z,4.53
2019-02-28T11:57:06.713Z,5.23
2019-02-28T11:59:38.203Z,5.90
2019-02-28T12:02:11.843Z,6.67
2019-02-28T12:04:45.466Z,6.40
2019-02-28T12:07:19.115Z,5.97
2019-02-28T12:09:54.746Z,5.87
2019-02-28T12:12:26.714Z,6.63
2019-02-28T12:15:02.623Z,5.53
2019-02-28T12:17:34.907Z,6.40
2019-02-28T12:20:09.522Z,5.60
2019-02-28T12:22:43.576Z,6.20
2019-02-28T12:25:17.528Z,5.50
2019-02-28T12:27:51.955Z,5.00
2019-02-28T12:30:27.270Z,5.87
2019-02-28T12:33:00.849Z,5.80
2019-02-28T12:35:39.955Z,5.20
2019-02-28T12:38:08.094Z,5.60
2019-02-28T12:40:42.613Z,6.18
2019-02-28T12:43:15.497Z,6.62
2019-02-28T12:45:50.005Z,5.80
2019-02-28T12:48:24.531Z,6.30
2019-02-28T12:50:58.382Z,5.70
2019-02-28T12:53:32.948Z,5.75
2019-02-28T12:56:06.508Z,5.10
2019-02-28T12:58:41.678Z,5.12
2019-02-28T13:01:13.800Z,6.43
2019-02-28T13:03:53.757Z,6.12
2019-02-28T13:06:23.676Z,6.18
2019-02-28T13:08:55.481Z,6.75
2019-02-28T13:11:29.993Z,6.65
2019-02-28T13:14:06.401Z,6.35
2019-02-28T13:16:38.191Z,5.80
2019-02-28T13:19:11.744Z,5.62
2019-02-28T13:21:46.796Z,6.45
2019-02-28T13:24:19.145Z,6.10
2019-02-28T13:26:52.911Z,7.70
2019-02-28T13:29:28.834Z,6.57
2019-02-28T13:32:01.358Z,6.80
2019-02-28T13:34:33.993Z,7.20
2019-02-28T13:37:07.677Z,6.70
2019-02-28T13:39:41.167Z,7.70
2019-02-28T13:42:14.900Z,6.87
2019-02-28T13:44:48.558Z,6.95
2019-02-28T13:47:22.269Z,7.50
2019-02-28T13:49:55.984Z,8.52
2019-02-28T13:52:29.727Z,7.47
2019-02-28T13:55:06.156Z,6.30
2019-02-28T13:57:40.755Z,7.10
2019-02-28T14:03:11.530Z,7.70
2019-02-28T14:05:45.229Z,7.47
2019-02-28T14:08:19.651Z,8.15
2019-02-28T14:10:54.080Z,7.28
2019-02-28T14:13:29.984Z,7.57
2019-02-28T14:16:02.017Z,7.57
2019-02-28T14:18:35.680Z,7.12
2019-02-28T14:21:09.282Z,7.75
2019-02-28T14:23:42.838Z,6.97
2019-02-28T14:26:17.350Z,6.30
2019-02-28T14:28:50.973Z,6.70
2019-02-28T14:31:24.717Z,6.93
2019-02-28T14:33:58.452Z,7.12
2019-02-28T14:36:32.164Z,6.12
2019-02-28T14:39:08.468Z,7.05
2019-02-28T14:41:39.377Z,6.35
2019-02-28T14:44:13.190Z,6.30
2019-02-28T14:46:49.891Z,6.93
2019-02-28T14:49:20.467Z,6.82
2019-02-28T14:51:54.814Z,6.78
2019-02-28T14:54:28.413Z,7.40
2019-02-28T14:57:02.022Z,7.00
2019-02-28T14:59:35.619Z,6.78
2019-02-28T15:02:09.176Z,7.50
2019-02-28T15:04:45.665Z,6.32
2019-02-28T15:07:16.453Z,6.93
2019-02-28T15:09:50.215Z,7.85
2019-02-28T15:12:24.890Z,6.90
2019-02-28T15:14:58.572Z,7.97
2019-02-28T15:17:32.284Z,6.78
2019-02-28T15:20:06.785Z,8.07
2019-02-28T15:22:40.531Z,7.60
2019-02-28T15:25:19.343Z,6.15
2019-02-28T15:27:52.280Z,7.05
2019-02-28T15:30:33.582Z,7.35
2019-02-28T15:33:04.355Z,7.65
2019-02-28T15:35:38.134Z,7.72
2019-02-28T15:38:11.818Z,7.03
2019-02-28T15:40:45.367Z,5.55
2019-02-28T15:43:19.891Z,5.80
2019-02-28T15:45:53.784Z,6.00
2019-02-28T15:48:28.279Z,5.90
2019-02-28T15:51:03.430Z,6.75
2019-02-28T15:53:35.533Z,5.90
2019-02-28T15:56:13.180Z,7.90
2019-02-28T15:58:44.122Z,15.70
2019-02-28T16:01:17.814Z,8.98
2019-02-28T16:03:52.482Z,9.13
2019-02-28T16:06:25.307Z,10.00
2019-02-28T16:08:58.969Z,10.30
2019-02-28T16:11:33.434Z,10.30
2019-02-28T16:14:14.331Z,10.55
2019-02-28T16:16:40.660Z,12.98
2019-02-28T16:19:14.346Z,9.88
2019-02-28T16:21:48.071Z,9.55
2019-02-28T16:24:21.680Z,9.50
2019-02-28T16:26:56.763Z,11.40
2019-02-28T16:29:29.015Z,11.63
2019-02-28T16:32:02.684Z,10.98
2019-02-28T16:34:38.776Z,11.48
2019-02-28T16:37:10.051Z,11.30
2019-02-28T16:39:43.669Z,10.90
2019-02-28T16:42:17.554Z,13.50
2019-02-28T16:44:51.134Z,11.57
2019-02-28T16:47:25.195Z,13.02
2019-02-28T16:49:58.263Z,12.32
2019-02-28T16:52:32.771Z,11.80
2019-02-28T16:55:07.227Z,11.95
2019-02-28T16:57:43.524Z,11.75
2019-02-28T17:00:16.281Z,10.95
2019-02-28T17:02:50.003Z,11.48
2019-02-28T17:05:28.113Z,10.80
2019-02-28T17:07:57.342Z,9.98
2019-02-28T17:10:30.923Z,9.90
2019-02-28T17:13:11.215Z,10.35
2019-02-28T17:15:48.560Z,10.60
2019-02-28T17:18:22.541Z,11.32
2019-02-28T17:20:55.727Z,10.38
2019-02-28T17:23:29.444Z,9.65
2019-02-28T17:26:03.251Z,9.20
2019-02-28T17:28:38.803Z,8.93
2019-02-28T17:31:18.255Z,8.50
2019-02-28T17:33:51.771Z,6.10
2019-02-28T17:36:26.131Z,7.57
2019-02-28T17:39:00.189Z,7.37
2019-02-28T17:41:37.081Z,7.85
2019-02-28T17:44:08.538Z,7.20
2019-02-28T17:46:42.080Z,6.50
2019-02-28T17:49:26.442Z,7.68
2019-02-28T17:51:58.591Z,7.30
2019-02-28T17:54:36.257Z,7.75
2019-02-28T17:57:16.730Z,7.50
2019-02-28T18:00:06.105Z,15.63
2019-02-28T18:02:49.408Z,7.70
2019-02-28T18:18:54.038Z,8.77
2019-02-28T18:21:41.007Z,9.35
2019-02-28T18:37:40.305Z,11.50
2019-02-28T18:40:14.041Z,9.05
2019-02-28T18:42:47.672Z,9.65
2019-02-28T18:45:22.462Z,8.90
2019-02-28T18:47:54.851Z,10.65
2019-02-28T18:50:28.465Z,8.52
2019-02-28T18:53:02.006Z,9.93
2019-02-28T18:55:35.694Z,7.75
2019-02-28T18:58:09.395Z,8.40
2019-02-28T19:00:43.227Z,8.02
2019-02-28T19:03:17.596Z,10.80
2019-02-28T19:05:51.976Z,6.80
2019-02-28T19:08:25.776Z,5.10
2019-02-28T19:10:59.578Z,5.05
2019-02-28T19:13:33.335Z,4.15
2019-02-28T19:16:07.059Z,6.20
2019-02-28T19:18:41.620Z,3.72
2019-02-28T19:21:16.095Z,5.75
2019-02-28T19:23:49.705Z,4.32
2019-02-28T19:26:23.326Z,4.25
2019-02-28T19:28:57.146Z,4.00
2019-02-28T19:31:31.491Z,4.30
2019-02-28T19:34:05.111Z,5.12
2019-02-28T19:36:38.631Z,3.87
2019-02-28T19:39:12.957Z,4.60
2019-02-28T19:41:46.642Z,3.67
2019-02-28T19:44:20.203Z,2.95
2019-02-28T19:46:53.879Z,2.50
2019-02-28T19:49:27.562Z,3.15
2019-02-28T19:52:02.057Z,2.53
2019-02-28T19:54:35.763Z,2.62
2019-02-28T19:57:09.675Z,2.70
2019-02-28T19:59:43.227Z,2.50
2019-02-28T20:02:16.884Z,2.47
2019-02-28T20:04:51.416Z,2.78
2019-02-28T20:07:25.021Z,2.40
2019-02-28T20:09:58.602Z,2.60
2019-02-28T20:12:32.410Z,2.17
2019-02-28T20:15:06.238Z,2.65
2019-02-28T20:17:39.947Z,2.28
2019-02-28T20:20:17.234Z,3.70
2019-02-28T20:22:50.990Z,2.50
2019-02-28T20:25:24.550Z,3.00
2019-02-28T20:27:58.943Z,2.50
2019-02-28T20:30:32.579Z,2.20
2019-02-28T20:33:06.180Z,2.72
2019-02-28T20:35:40.735Z,2.25
2019-02-28T20:38:14.372Z,3.08
2019-02-28T20:40:47.955Z,3.05
2019-02-28T20:43:21.710Z,3.37
2019-02-28T20:45:55.352Z,3.08
2019-02-28T20:48:29.880Z,2.33
2019-02-28T20:51:03.437Z,2.65
2019-02-28T20:53:37.081Z,2.40
2019-02-28T20:56:10.688Z,2.17
2019-02-28T20:58:44.264Z,2.50
2019-02-28T21:01:17.820Z,2.45
2019-02-28T21:03:52.144Z,2.10
2019-02-28T21:06:25.895Z,2.35
2019-02-28T21:08:59.553Z,2.20
2019-02-28T21:11:33.156Z,1.70
2019-02-28T21:14:06.866Z,2.72
2019-02-28T21:16:40.668Z,2.30
2019-02-28T21:19:14.425Z,2.40
2019-02-28T21:21:48.179Z,2.00
2019-02-28T21:24:21.740Z,2.50
2019-02-28T21:26:55.276Z,2.45
2019-02-28T21:29:29.057Z,2.70
2019-02-28T21:32:02.914Z,2.30
2019-02-28T21:34:36.640Z,2.30
2019-02-28T21:37:10.205Z,3.40
2019-02-28T21:39:44.585Z,1.90
2019-02-28T21:42:18.227Z,2.22
2019-02-28T21:44:52.000Z,2.05
2019-02-28T21:47:25.620Z,2.35
2019-02-28T21:50:00.016Z,2.25
2019-02-28T21:52:34.400Z,1.45
2019-02-28T21:55:09.995Z,2.33
2019-02-28T21:57:43.805Z,1.55
2019-02-28T22:00:25.455Z,2.10
2019-02-28T22:02:58.979Z,1.50
2019-02-28T22:05:32.750Z,2.15
2019-02-28T22:08:06.386Z,2.40
2019-02-28T22:10:40.697Z,1.85
2019-02-28T22:13:15.019Z,2.33
2019-02-28T22:15:48.688Z,1.60
2019-02-28T22:18:23.269Z,2.22
2019-02-28T22:20:57.105Z,1.67
2019-02-28T22:23:31.380Z,2.12
2019-02-28T22:26:04.971Z,2.00
2019-02-28T22:28:38.626Z,1.90
2019-02-28T22:31:14.266Z,1.98
2019-02-28T22:33:49.672Z,2.12
2019-02-28T22:36:24.323Z,2.10
2019-02-28T22:38:58.113Z,2.78
2019-02-28T22:41:31.690Z,1.52
2019-02-28T22:44:05.479Z,1.75
2019-02-28T22:46:39.256Z,1.48
2019-02-28T22:49:13.007Z,1.35
2019-02-28T22:51:47.355Z,1.40
2019-02-28T22:54:21.070Z,1.95
2019-02-28T22:56:54.679Z,1.73
2019-02-28T22:59:28.248Z,1.27
2019-02-28T23:02:02.000Z,1.00
2019-02-28T23:04:35.652Z,1.10
2019-02-28T23:07:09.230Z,1.35
2019-02-28T23:09:42.836Z,1.58
2019-02-28T23:12:16.412Z,1.25
2019-02-28T23:14:50.187Z,1.10
2019-02-28T23:17:24.665Z,0.93
2019-02-28T23:19:58.431Z,1.10
2019-02-28T23:22:31.997Z,1.48
2019-02-28T23:25:05.756Z,1.73
2019-02-28T23:27:39.373Z,1.90
2019-02-28T23:30:16.867Z,1.10
2019-02-28T23:32:53.158Z,1.65
2019-02-28T23:35:26.679Z,1.35
2019-02-28T23:38:00.324Z,1.62
2019-02-28T23:40:34.096Z,1.40
2019-02-28T23:43:07.730Z,2.10
2019-02-28T23:45:41.279Z,1.50
2019-02-28T23:48:14.936Z,1.33
2019-02-28T23:50:48.651Z,1.65
2019-02-28T23:53:22.178Z,1.50
2019-02-28T23:55:55.955Z,1.35
2019-02-28T23:58:29.616Z,1.33
